sensor_id;sensor_type;location;lat;lon;timestamp;temperature;humidity
770;DHT22;368;48.698;9.116;2023-03-23T00:01:02;12.30;90.10
770;DHT22;368;48.698;9.116;2023-03-23T00:03:33;12.10;90.10
770;DHT22;368;48.698;9.116;2023-03-23T00:06:02;12.20;90.30
770;DHT22;368;48.698;9.116;2023-03-23T00:08:32;12.30;90.50
770;DHT22;368;48.698;9.116;2023-03-23T00:11:04;12.20;90.90
770;DHT22;368;48.698;9.116;2023-03-23T00:13:37;12.20;91.00
770;DHT22;368;48.698;9.116;2023-03-23T00:16:07;12.20;90.90
770;DHT22;368;48.698;9.116;2023-03-23T00:18:46;12.10;90.80
770;DHT22;368;48.698;9.116;2023-03-23T00:21:14;12.10;90.90
770;DHT22;368;48.698;9.116;2023-03-23T00:23:42;12.00;90.50
770;DHT22;368;48.698;9.116;2023-03-23T00:26:12;12.20;90.40
770;DHT22;368;48.698;9.116;2023-03-23T00:28:42;12.00;90.20
770;DHT22;368;48.698;9.116;2023-03-23T00:31:13;12.00;90.00
770;DHT22;368;48.698;9.116;2023-03-23T00:33:45;12.00;90.10
770;DHT22;368;48.698;9.116;2023-03-23T00:36:15;12.20;89.60
770;DHT22;368;48.698;9.116;2023-03-23T00:38:49;12.30;89.40
770;DHT22;368;48.698;9.116;2023-03-23T00:41:18;12.20;89.60
770;DHT22;368;48.698;9.116;2023-03-23T00:43:46;11.80;89.10
770;DHT22;368;48.698;9.116;2023-03-23T00:46:14;11.80;89.60
770;DHT22;368;48.698;9.116;2023-03-23T00:48:42;11.90;89.80
770;DHT22;368;48.698;9.116;2023-03-23T00:51:21;11.70;89.30
770;DHT22;368;48.698;9.116;2023-03-23T00:53:50;11.70;89.70
770;DHT22;368;48.698;9.116;2023-03-23T00:56:19;11.90;90.00
770;DHT22;368;48.698;9.116;2023-03-23T00:58:52;11.90;89.50
770;DHT22;368;48.698;9.116;2023-03-23T01:01:22;11.90;89.80
770;DHT22;368;48.698;9.116;2023-03-23T01:03:54;12.00;90.00
770;DHT22;368;48.698;9.116;2023-03-23T01:06:30;11.80;89.90
770;DHT22;368;48.698;9.116;2023-03-23T01:09:02;11.80;89.90
770;DHT22;368;48.698;9.116;2023-03-23T01:11:29;12.10;89.80
770;DHT22;368;48.698;9.116;2023-03-23T01:13:57;11.90;89.80
770;DHT22;368;48.698;9.116;2023-03-23T01:16:25;11.90;90.00
770;DHT22;368;48.698;9.116;2023-03-23T01:18:59;12.00;90.20
770;DHT22;368;48.698;9.116;2023-03-23T01:21:29;12.10;90.00
770;DHT22;368;48.698;9.116;2023-03-23T01:23:57;12.00;90.00
770;DHT22;368;48.698;9.116;2023-03-23T01:26:26;12.10;90.00
770;DHT22;368;48.698;9.116;2023-03-23T01:28:54;12.10;90.30
770;DHT22;368;48.698;9.116;2023-03-23T01:31:24;12.00;90.30
770;DHT22;368;48.698;9.116;2023-03-23T01:33:55;11.90;90.60
770;DHT22;368;48.698;9.116;2023-03-23T01:36:24;11.80;90.20
770;DHT22;368;48.698;9.116;2023-03-23T01:39:05;11.90;90.10
770;DHT22;368;48.698;9.116;2023-03-23T01:41:35;12.00;90.10
770;DHT22;368;48.698;9.116;2023-03-23T01:46:52;12.10;89.80
770;DHT22;368;48.698;9.116;2023-03-23T01:49:23;11.90;89.60
770;DHT22;368;48.698;9.116;2023-03-23T01:51:58;12.00;89.80
770;DHT22;368;48.698;9.116;2023-03-23T01:54:30;11.90;90.00
770;DHT22;368;48.698;9.116;2023-03-23T01:57:03;11.80;90.00
770;DHT22;368;48.698;9.116;2023-03-23T01:59:33;11.80;89.80
770;DHT22;368;48.698;9.116;2023-03-23T02:02:01;11.90;90.20
770;DHT22;368;48.698;9.116;2023-03-23T02:04:29;11.80;90.10
770;DHT22;368;48.698;9.116;2023-03-23T02:06:57;11.80;90.10
770;DHT22;368;48.698;9.116;2023-03-23T02:09:25;11.90;90.30
770;DHT22;368;48.698;9.116;2023-03-23T02:11:54;12.10;90.40
770;DHT22;368;48.698;9.116;2023-03-23T02:14:22;11.90;90.30
770;DHT22;368;48.698;9.116;2023-03-23T02:16:54;11.80;90.30
770;DHT22;368;48.698;9.116;2023-03-23T02:19:42;11.70;90.40
770;DHT22;368;48.698;9.116;2023-03-23T02:25:34;12.10;90.40
770;DHT22;368;48.698;9.116;2023-03-23T02:28:22;12.30;90.50
770;DHT22;368;48.698;9.116;2023-03-23T02:31:20;12.30;90.80
770;DHT22;368;48.698;9.116;2023-03-23T02:33:55;12.10;90.40
770;DHT22;368;48.698;9.116;2023-03-23T02:36:28;12.30;90.70
770;DHT22;368;48.698;9.116;2023-03-23T02:39:02;12.00;90.70
770;DHT22;368;48.698;9.116;2023-03-23T02:41:36;12.30;90.80
770;DHT22;368;48.698;9.116;2023-03-23T02:44:07;12.20;90.80
770;DHT22;368;48.698;9.116;2023-03-23T02:46:35;12.10;90.50
770;DHT22;368;48.698;9.116;2023-03-23T02:49:06;12.30;90.60
770;DHT22;368;48.698;9.116;2023-03-23T02:51:34;12.30;90.70
770;DHT22;368;48.698;9.116;2023-03-23T02:54:03;12.30;91.10
770;DHT22;368;48.698;9.116;2023-03-23T02:56:33;12.00;91.00
770;DHT22;368;48.698;9.116;2023-03-23T02:59:01;12.30;91.10
770;DHT22;368;48.698;9.116;2023-03-23T03:02:04;12.00;91.30
770;DHT22;368;48.698;9.116;2023-03-23T03:04:34;11.90;91.30
770;DHT22;368;48.698;9.116;2023-03-23T03:07:23;12.10;91.20
770;DHT22;368;48.698;9.116;2023-03-23T03:09:54;12.10;90.90
770;DHT22;368;48.698;9.116;2023-03-23T03:12:28;12.10;90.40
770;DHT22;368;48.698;9.116;2023-03-23T03:15:06;12.10;90.40
770;DHT22;368;48.698;9.116;2023-03-23T03:17:40;12.20;90.40
770;DHT22;368;48.698;9.116;2023-03-23T03:20:11;12.50;90.40
770;DHT22;368;48.698;9.116;2023-03-23T03:22:41;12.40;90.30
770;DHT22;368;48.698;9.116;2023-03-23T03:25:12;12.50;90.40
770;DHT22;368;48.698;9.116;2023-03-23T03:27:41;12.50;90.40
770;DHT22;368;48.698;9.116;2023-03-23T03:30:14;12.30;90.90
770;DHT22;368;48.698;9.116;2023-03-23T03:32:46;12.00;90.60
770;DHT22;368;48.698;9.116;2023-03-23T03:35:16;12.40;90.90
770;DHT22;368;48.698;9.116;2023-03-23T03:37:43;12.20;90.80
770;DHT22;368;48.698;9.116;2023-03-23T03:40:14;12.30;90.60
770;DHT22;368;48.698;9.116;2023-03-23T03:42:43;12.40;90.60
770;DHT22;368;48.698;9.116;2023-03-23T03:45:13;12.60;90.70
770;DHT22;368;48.698;9.116;2023-03-23T03:47:41;12.50;90.80
770;DHT22;368;48.698;9.116;2023-03-23T03:50:08;12.30;90.30
770;DHT22;368;48.698;9.116;2023-03-23T03:52:37;12.60;90.30
770;DHT22;368;48.698;9.116;2023-03-23T03:55:07;12.40;90.30
770;DHT22;368;48.698;9.116;2023-03-23T03:57:35;12.70;90.40
770;DHT22;368;48.698;9.116;2023-03-23T04:00:03;12.40;90.40
770;DHT22;368;48.698;9.116;2023-03-23T04:02:39;12.50;90.60
770;DHT22;368;48.698;9.116;2023-03-23T04:05:07;12.60;90.90
770;DHT22;368;48.698;9.116;2023-03-23T04:07:37;12.30;91.00
770;DHT22;368;48.698;9.116;2023-03-23T04:10:06;12.30;91.20
770;DHT22;368;48.698;9.116;2023-03-23T04:12:34;12.10;91.20
770;DHT22;368;48.698;9.116;2023-03-23T04:15:01;12.10;91.40
770;DHT22;368;48.698;9.116;2023-03-23T04:17:28;12.10;91.90
770;DHT22;368;48.698;9.116;2023-03-23T04:19:55;12.00;91.80
770;DHT22;368;48.698;9.116;2023-03-23T04:22:22;12.00;91.90
770;DHT22;368;48.698;9.116;2023-03-23T04:24:58;11.80;91.80
770;DHT22;368;48.698;9.116;2023-03-23T04:27:25;11.80;91.80
770;DHT22;368;48.698;9.116;2023-03-23T04:29:54;12.10;92.00
770;DHT22;368;48.698;9.116;2023-03-23T04:32:21;12.20;92.00
770;DHT22;368;48.698;9.116;2023-03-23T04:34:50;12.30;91.80
770;DHT22;368;48.698;9.116;2023-03-23T04:37:17;12.40;91.40
770;DHT22;368;48.698;9.116;2023-03-23T04:39:44;12.50;91.30
770;DHT22;368;48.698;9.116;2023-03-23T04:42:13;12.80;91.30
770;DHT22;368;48.698;9.116;2023-03-23T04:44:40;12.60;91.00
770;DHT22;368;48.698;9.116;2023-03-23T04:47:08;12.70;91.00
770;DHT22;368;48.698;9.116;2023-03-23T04:49:35;12.70;90.80
770;DHT22;368;48.698;9.116;2023-03-23T04:52:03;12.80;90.90
770;DHT22;368;48.698;9.116;2023-03-23T04:54:31;12.70;90.90
770;DHT22;368;48.698;9.116;2023-03-23T04:56:57;12.70;90.90
770;DHT22;368;48.698;9.116;2023-03-23T04:59:26;12.60;90.60
770;DHT22;368;48.698;9.116;2023-03-23T05:01:53;12.90;90.80
770;DHT22;368;48.698;9.116;2023-03-23T05:04:21;12.70;90.70
770;DHT22;368;48.698;9.116;2023-03-23T05:06:50;12.70;90.70
770;DHT22;368;48.698;9.116;2023-03-23T05:09:18;13.10;90.80
770;DHT22;368;48.698;9.116;2023-03-23T05:11:46;12.90;90.80
770;DHT22;368;48.698;9.116;2023-03-23T05:14:13;12.70;90.90
770;DHT22;368;48.698;9.116;2023-03-23T05:16:41;12.80;90.80
770;DHT22;368;48.698;9.116;2023-03-23T05:19:07;12.80;90.70
770;DHT22;368;48.698;9.116;2023-03-23T05:21:34;12.70;90.50
770;DHT22;368;48.698;9.116;2023-03-23T05:24:02;13.00;90.90
770;DHT22;368;48.698;9.116;2023-03-23T05:26:29;13.10;90.60
770;DHT22;368;48.698;9.116;2023-03-23T05:28:56;13.10;90.20
770;DHT22;368;48.698;9.116;2023-03-23T05:31:24;13.00;90.30
770;DHT22;368;48.698;9.116;2023-03-23T05:33:53;13.10;90.20
770;DHT22;368;48.698;9.116;2023-03-23T05:36:20;13.20;90.20
770;DHT22;368;48.698;9.116;2023-03-23T05:38:48;12.90;90.20
770;DHT22;368;48.698;9.116;2023-03-23T05:41:15;13.00;90.20
770;DHT22;368;48.698;9.116;2023-03-23T05:43:42;13.00;90.20
770;DHT22;368;48.698;9.116;2023-03-23T05:46:09;12.90;90.20
770;DHT22;368;48.698;9.116;2023-03-23T05:48:35;12.90;90.20
770;DHT22;368;48.698;9.116;2023-03-23T05:51:05;12.90;90.10
770;DHT22;368;48.698;9.116;2023-03-23T05:53:31;13.10;90.20
770;DHT22;368;48.698;9.116;2023-03-23T05:55:59;13.20;90.10
770;DHT22;368;48.698;9.116;2023-03-23T05:58:26;13.00;90.10
770;DHT22;368;48.698;9.116;2023-03-23T06:00:53;13.10;89.80
770;DHT22;368;48.698;9.116;2023-03-23T06:03:21;13.20;90.00
770;DHT22;368;48.698;9.116;2023-03-23T06:05:48;13.10;89.80
770;DHT22;368;48.698;9.116;2023-03-23T06:08:16;13.30;89.70
770;DHT22;368;48.698;9.116;2023-03-23T06:10:44;13.70;89.70
770;DHT22;368;48.698;9.116;2023-03-23T06:13:11;13.50;89.50
770;DHT22;368;48.698;9.116;2023-03-23T06:15:38;13.60;89.60
770;DHT22;368;48.698;9.116;2023-03-23T06:18:05;13.60;89.40
770;DHT22;368;48.698;9.116;2023-03-23T06:20:32;13.30;88.80
770;DHT22;368;48.698;9.116;2023-03-23T06:23:00;13.60;89.10
770;DHT22;368;48.698;9.116;2023-03-23T06:25:30;13.60;89.30
770;DHT22;368;48.698;9.116;2023-03-23T06:27:57;13.60;88.80
770;DHT22;368;48.698;9.116;2023-03-23T06:30:24;13.70;89.40
770;DHT22;368;48.698;9.116;2023-03-23T06:32:51;13.50;89.20
770;DHT22;368;48.698;9.116;2023-03-23T06:35:18;13.60;89.30
770;DHT22;368;48.698;9.116;2023-03-23T06:37:44;13.40;89.70
770;DHT22;368;48.698;9.116;2023-03-23T06:40:11;13.40;89.80
770;DHT22;368;48.698;9.116;2023-03-23T06:42:39;13.40;89.70
770;DHT22;368;48.698;9.116;2023-03-23T06:45:07;13.70;90.10
770;DHT22;368;48.698;9.116;2023-03-23T06:47:34;13.40;90.00
770;DHT22;368;48.698;9.116;2023-03-23T06:50:01;13.60;90.00
770;DHT22;368;48.698;9.116;2023-03-23T06:52:28;13.60;89.60
770;DHT22;368;48.698;9.116;2023-03-23T06:54:55;13.70;89.60
770;DHT22;368;48.698;9.116;2023-03-23T06:57:22;13.70;89.20
770;DHT22;368;48.698;9.116;2023-03-23T06:59:50;14.10;89.40
770;DHT22;368;48.698;9.116;2023-03-23T07:02:16;14.10;88.70
770;DHT22;368;48.698;9.116;2023-03-23T07:04:43;14.10;89.30
770;DHT22;368;48.698;9.116;2023-03-23T07:07:11;14.10;88.50
770;DHT22;368;48.698;9.116;2023-03-23T07:09:40;14.10;88.70
770;DHT22;368;48.698;9.116;2023-03-23T07:12:08;13.80;88.50
770;DHT22;368;48.698;9.116;2023-03-23T07:14:35;13.80;88.40
770;DHT22;368;48.698;9.116;2023-03-23T07:17:04;14.10;89.00
770;DHT22;368;48.698;9.116;2023-03-23T07:19:33;13.90;88.90
770;DHT22;368;48.698;9.116;2023-03-23T07:22:00;13.80;88.90
770;DHT22;368;48.698;9.116;2023-03-23T07:24:27;13.80;89.20
770;DHT22;368;48.698;9.116;2023-03-23T07:26:54;13.70;88.90
770;DHT22;368;48.698;9.116;2023-03-23T07:29:21;13.60;89.40
770;DHT22;368;48.698;9.116;2023-03-23T07:31:48;13.60;89.10
770;DHT22;368;48.698;9.116;2023-03-23T07:34:16;14.00;89.70
770;DHT22;368;48.698;9.116;2023-03-23T07:36:43;13.90;89.10
770;DHT22;368;48.698;9.116;2023-03-23T07:39:10;13.90;89.70
770;DHT22;368;48.698;9.116;2023-03-23T07:41:37;14.00;89.10
770;DHT22;368;48.698;9.116;2023-03-23T07:44:05;14.30;89.60
770;DHT22;368;48.698;9.116;2023-03-23T07:46:32;14.20;89.10
770;DHT22;368;48.698;9.116;2023-03-23T07:48:59;14.40;89.00
770;DHT22;368;48.698;9.116;2023-03-23T07:51:31;14.30;89.00
770;DHT22;368;48.698;9.116;2023-03-23T07:53:59;14.60;89.10
770;DHT22;368;48.698;9.116;2023-03-23T07:56:28;14.70;88.20
770;DHT22;368;48.698;9.116;2023-03-23T07:58:54;14.80;88.30
770;DHT22;368;48.698;9.116;2023-03-23T08:01:22;15.00;88.50
770;DHT22;368;48.698;9.116;2023-03-23T08:03:49;15.10;88.30
770;DHT22;368;48.698;9.116;2023-03-23T08:06:16;15.00;87.80
770;DHT22;368;48.698;9.116;2023-03-23T08:08:45;15.10;87.60
770;DHT22;368;48.698;9.116;2023-03-23T08:11:12;15.30;88.00
770;DHT22;368;48.698;9.116;2023-03-23T08:13:40;15.20;87.90
770;DHT22;368;48.698;9.116;2023-03-23T08:16:08;15.00;87.80
770;DHT22;368;48.698;9.116;2023-03-23T08:18:35;15.00;88.30
770;DHT22;368;48.698;9.116;2023-03-23T08:21:03;15.10;88.60
770;DHT22;368;48.698;9.116;2023-03-23T08:23:30;15.10;89.30
770;DHT22;368;48.698;9.116;2023-03-23T08:25:59;15.30;88.50
770;DHT22;368;48.698;9.116;2023-03-23T08:28:26;15.70;88.30
770;DHT22;368;48.698;9.116;2023-03-23T08:30:53;16.30;86.60
770;DHT22;368;48.698;9.116;2023-03-23T08:33:20;16.30;85.90
770;DHT22;368;48.698;9.116;2023-03-23T08:35:54;16.00;86.90
770;DHT22;368;48.698;9.116;2023-03-23T08:38:22;15.70;88.10
770;DHT22;368;48.698;9.116;2023-03-23T08:40:49;15.70;89.30
770;DHT22;368;48.698;9.116;2023-03-23T08:43:17;15.70;89.50
770;DHT22;368;48.698;9.116;2023-03-23T08:45:44;15.60;89.90
770;DHT22;368;48.698;9.116;2023-03-23T08:48:11;15.50;90.30
770;DHT22;368;48.698;9.116;2023-03-23T08:50:39;15.40;90.40
770;DHT22;368;48.698;9.116;2023-03-23T08:53:06;15.30;90.50
770;DHT22;368;48.698;9.116;2023-03-23T08:55:33;15.40;90.90
770;DHT22;368;48.698;9.116;2023-03-23T08:58:01;15.00;91.00
770;DHT22;368;48.698;9.116;2023-03-23T09:00:30;15.20;91.20
770;DHT22;368;48.698;9.116;2023-03-23T09:02:58;15.20;91.10
770;DHT22;368;48.698;9.116;2023-03-23T09:05:27;15.50;91.10
770;DHT22;368;48.698;9.116;2023-03-23T09:07:55;15.50;91.00
770;DHT22;368;48.698;9.116;2023-03-23T09:10:25;15.30;91.00
770;DHT22;368;48.698;9.116;2023-03-23T09:12:53;15.40;90.90
770;DHT22;368;48.698;9.116;2023-03-23T09:15:20;15.50;91.10
770;DHT22;368;48.698;9.116;2023-03-23T09:17:50;15.80;90.90
770;DHT22;368;48.698;9.116;2023-03-23T09:20:18;15.60;90.20
770;DHT22;368;48.698;9.116;2023-03-23T09:22:49;16.00;90.30
770;DHT22;368;48.698;9.116;2023-03-23T09:25:19;15.70;90.20
770;DHT22;368;48.698;9.116;2023-03-23T09:27:49;15.90;90.20
770;DHT22;368;48.698;9.116;2023-03-23T09:30:19;16.10;90.20
770;DHT22;368;48.698;9.116;2023-03-23T09:32:47;16.30;90.10
770;DHT22;368;48.698;9.116;2023-03-23T09:35:16;16.20;90.70
770;DHT22;368;48.698;9.116;2023-03-23T09:37:44;16.00;90.20
770;DHT22;368;48.698;9.116;2023-03-23T09:40:14;15.90;90.50
770;DHT22;368;48.698;9.116;2023-03-23T09:42:56;15.60;90.80
770;DHT22;368;48.698;9.116;2023-03-23T09:45:30;15.40;90.80
770;DHT22;368;48.698;9.116;2023-03-23T09:48:17;15.50;91.20
770;DHT22;368;48.698;9.116;2023-03-23T09:50:51;15.30;91.30
770;DHT22;368;48.698;9.116;2023-03-23T09:53:22;15.40;91.50
770;DHT22;368;48.698;9.116;2023-03-23T09:55:50;15.30;91.60
770;DHT22;368;48.698;9.116;2023-03-23T09:58:21;15.70;91.40
770;DHT22;368;48.698;9.116;2023-03-23T10:00:55;15.20;91.00
770;DHT22;368;48.698;9.116;2023-03-23T10:03:27;15.30;91.00
770;DHT22;368;48.698;9.116;2023-03-23T10:05:57;15.90;91.30
770;DHT22;368;48.698;9.116;2023-03-23T10:08:26;15.90;91.00
770;DHT22;368;48.698;9.116;2023-03-23T10:10:59;16.30;91.30
770;DHT22;368;48.698;9.116;2023-03-23T10:13:42;16.60;90.10
770;DHT22;368;48.698;9.116;2023-03-23T10:16:17;16.70;89.60
770;DHT22;368;48.698;9.116;2023-03-23T10:18:49;16.50;90.00
770;DHT22;368;48.698;9.116;2023-03-23T10:21:22;16.50;90.20
770;DHT22;368;48.698;9.116;2023-03-23T10:23:53;16.50;90.10
770;DHT22;368;48.698;9.116;2023-03-23T10:26:35;16.70;90.10
770;DHT22;368;48.698;9.116;2023-03-23T10:29:13;16.90;90.00
770;DHT22;368;48.698;9.116;2023-03-23T10:31:43;17.10;89.90
770;DHT22;368;48.698;9.116;2023-03-23T10:34:15;17.10;90.00
770;DHT22;368;48.698;9.116;2023-03-23T10:36:54;17.00;89.80
770;DHT22;368;48.698;9.116;2023-03-23T10:39:25;16.80;90.30
770;DHT22;368;48.698;9.116;2023-03-23T10:41:53;16.80;90.20
770;DHT22;368;48.698;9.116;2023-03-23T10:44:23;16.90;90.40
770;DHT22;368;48.698;9.116;2023-03-23T10:46:55;16.90;89.70
770;DHT22;368;48.698;9.116;2023-03-23T10:49:24;16.80;90.10
770;DHT22;368;48.698;9.116;2023-03-23T10:51:58;17.40;89.50
770;DHT22;368;48.698;9.116;2023-03-23T10:54:35;17.80;87.50
770;DHT22;368;48.698;9.116;2023-03-23T10:57:12;18.70;86.20
770;DHT22;368;48.698;9.116;2023-03-23T10:59:40;18.10;86.80
770;DHT22;368;48.698;9.116;2023-03-23T11:02:16;17.90;86.90
770;DHT22;368;48.698;9.116;2023-03-23T11:04:46;17.90;87.00
770;DHT22;368;48.698;9.116;2023-03-23T11:07:20;18.00;87.20
770;DHT22;368;48.698;9.116;2023-03-23T11:09:53;17.90;87.40
770;DHT22;368;48.698;9.116;2023-03-23T11:12:21;17.50;87.50
770;DHT22;368;48.698;9.116;2023-03-23T11:14:49;17.20;88.70
770;DHT22;368;48.698;9.116;2023-03-23T11:17:22;17.00;89.40
770;DHT22;368;48.698;9.116;2023-03-23T11:19:50;17.00;89.90
770;DHT22;368;48.698;9.116;2023-03-23T11:22:25;17.00;89.90
770;DHT22;368;48.698;9.116;2023-03-23T11:24:54;16.70;90.30
770;DHT22;368;48.698;9.116;2023-03-23T11:27:22;16.70;90.70
770;DHT22;368;48.698;9.116;2023-03-23T11:29:51;16.60;91.20
770;DHT22;368;48.698;9.116;2023-03-23T11:32:19;16.60;91.30
770;DHT22;368;48.698;9.116;2023-03-23T11:34:54;16.40;91.70
770;DHT22;368;48.698;9.116;2023-03-23T11:37:28;16.50;91.30
770;DHT22;368;48.698;9.116;2023-03-23T11:39:57;16.80;91.00
770;DHT22;368;48.698;9.116;2023-03-23T11:42:26;17.20;90.80
770;DHT22;368;48.698;9.116;2023-03-23T11:45:13;17.30;90.40
770;DHT22;368;48.698;9.116;2023-03-23T11:47:43;17.20;90.30
770;DHT22;368;48.698;9.116;2023-03-23T11:50:16;17.50;90.50
770;DHT22;368;48.698;9.116;2023-03-23T11:52:49;17.90;90.10
770;DHT22;368;48.698;9.116;2023-03-23T11:55:20;17.90;89.20
770;DHT22;368;48.698;9.116;2023-03-23T11:57:48;17.80;88.20
770;DHT22;368;48.698;9.116;2023-03-23T12:00:17;17.70;88.40
770;DHT22;368;48.698;9.116;2023-03-23T12:05:55;17.60;88.40
770;DHT22;368;48.698;9.116;2023-03-23T12:08:51;17.80;87.80
770;DHT22;368;48.698;9.116;2023-03-23T12:11:25;17.20;88.20
770;DHT22;368;48.698;9.116;2023-03-23T12:14:14;17.40;90.00
770;DHT22;368;48.698;9.116;2023-03-23T12:16:54;17.60;88.70
770;DHT22;368;48.698;9.116;2023-03-23T12:19:34;17.20;87.50
770;DHT22;368;48.698;9.116;2023-03-23T12:22:11;17.20;88.40
770;DHT22;368;48.698;9.116;2023-03-23T12:24:54;17.30;87.70
770;DHT22;368;48.698;9.116;2023-03-23T12:27:31;17.60;88.10
770;DHT22;368;48.698;9.116;2023-03-23T12:30:13;17.50;87.50
770;DHT22;368;48.698;9.116;2023-03-23T12:32:51;17.60;88.10
770;DHT22;368;48.698;9.116;2023-03-23T12:35:32;17.30;86.80
770;DHT22;368;48.698;9.116;2023-03-23T12:38:13;17.20;86.90
770;DHT22;368;48.698;9.116;2023-03-23T12:40:50;17.50;85.80
770;DHT22;368;48.698;9.116;2023-03-23T12:43:25;17.60;85.50
770;DHT22;368;48.698;9.116;2023-03-23T12:46:05;18.00;84.10
770;DHT22;368;48.698;9.116;2023-03-23T12:48:40;18.30;82.70
770;DHT22;368;48.698;9.116;2023-03-23T12:51:20;18.30;82.30
770;DHT22;368;48.698;9.116;2023-03-23T12:53:55;18.30;82.40
770;DHT22;368;48.698;9.116;2023-03-23T12:56:29;18.40;82.40
770;DHT22;368;48.698;9.116;2023-03-23T12:59:05;18.30;82.10
770;DHT22;368;48.698;9.116;2023-03-23T13:01:37;18.00;82.40
770;DHT22;368;48.698;9.116;2023-03-23T13:04:09;17.90;83.40
770;DHT22;368;48.698;9.116;2023-03-23T13:06:38;17.90;83.40
770;DHT22;368;48.698;9.116;2023-03-23T13:09:11;17.90;83.50
770;DHT22;368;48.698;9.116;2023-03-23T13:11:43;17.90;83.10
770;DHT22;368;48.698;9.116;2023-03-23T13:14:36;18.20;83.60
770;DHT22;368;48.698;9.116;2023-03-23T13:17:11;17.90;83.70
770;DHT22;368;48.698;9.116;2023-03-23T13:20:02;17.60;83.20
770;DHT22;368;48.698;9.116;2023-03-23T13:22:37;17.60;83.80
770;DHT22;368;48.698;9.116;2023-03-23T13:25:10;17.70;83.70
770;DHT22;368;48.698;9.116;2023-03-23T13:27:41;17.80;83.30
770;DHT22;368;48.698;9.116;2023-03-23T13:30:19;17.80;82.70
770;DHT22;368;48.698;9.116;2023-03-23T13:32:50;17.80;83.50
770;DHT22;368;48.698;9.116;2023-03-23T13:35:19;18.00;82.70
770;DHT22;368;48.698;9.116;2023-03-23T13:37:49;17.80;83.30
770;DHT22;368;48.698;9.116;2023-03-23T13:40:25;18.00;83.20
770;DHT22;368;48.698;9.116;2023-03-23T13:46:27;18.20;82.80
770;DHT22;368;48.698;9.116;2023-03-23T13:49:20;18.40;81.90
770;DHT22;368;48.698;9.116;2023-03-23T13:51:58;18.50;82.70
770;DHT22;368;48.698;9.116;2023-03-23T13:54:30;18.80;80.30
770;DHT22;368;48.698;9.116;2023-03-23T13:56:59;18.50;80.70
770;DHT22;368;48.698;9.116;2023-03-23T13:59:35;18.10;80.60
770;DHT22;368;48.698;9.116;2023-03-23T14:02:26;17.90;81.30
770;DHT22;368;48.698;9.116;2023-03-23T14:04:54;17.70;81.70
770;DHT22;368;48.698;9.116;2023-03-23T14:07:21;17.70;81.80
770;DHT22;368;48.698;9.116;2023-03-23T14:09:50;17.80;82.10
770;DHT22;368;48.698;9.116;2023-03-23T14:12:19;17.90;81.20
770;DHT22;368;48.698;9.116;2023-03-23T14:14:49;17.80;80.80
770;DHT22;368;48.698;9.116;2023-03-23T14:17:18;17.70;81.60
770;DHT22;368;48.698;9.116;2023-03-23T14:19:49;17.70;81.30
770;DHT22;368;48.698;9.116;2023-03-23T14:22:18;17.50;81.00
770;DHT22;368;48.698;9.116;2023-03-23T14:24:46;17.50;81.30
770;DHT22;368;48.698;9.116;2023-03-23T14:27:17;17.40;80.30
770;DHT22;368;48.698;9.116;2023-03-23T14:29:44;17.40;81.10
770;DHT22;368;48.698;9.116;2023-03-23T14:32:14;17.30;81.10
770;DHT22;368;48.698;9.116;2023-03-23T14:34:43;17.40;81.10
770;DHT22;368;48.698;9.116;2023-03-23T14:37:13;17.30;81.30
770;DHT22;368;48.698;9.116;2023-03-23T14:39:45;16.80;80.90
770;DHT22;368;48.698;9.116;2023-03-23T14:42:15;17.00;81.10
770;DHT22;368;48.698;9.116;2023-03-23T14:44:44;16.60;81.10
770;DHT22;368;48.698;9.116;2023-03-23T14:47:17;16.80;81.60
770;DHT22;368;48.698;9.116;2023-03-23T14:49:46;17.20;81.60
770;DHT22;368;48.698;9.116;2023-03-23T14:52:16;17.20;81.00
770;DHT22;368;48.698;9.116;2023-03-23T14:54:44;17.20;80.80
770;DHT22;368;48.698;9.116;2023-03-23T14:57:13;17.20;80.70
770;DHT22;368;48.698;9.116;2023-03-23T14:59:41;17.40;80.50
770;DHT22;368;48.698;9.116;2023-03-23T15:02:14;17.20;79.80
770;DHT22;368;48.698;9.116;2023-03-23T15:04:44;17.10;79.80
770;DHT22;368;48.698;9.116;2023-03-23T15:07:14;16.70;79.50
770;DHT22;368;48.698;9.116;2023-03-23T15:09:44;17.20;79.40
770;DHT22;368;48.698;9.116;2023-03-23T15:12:20;17.20;79.40
770;DHT22;368;48.698;9.116;2023-03-23T15:14:51;17.20;79.00
770;DHT22;368;48.698;9.116;2023-03-23T15:17:20;17.30;79.30
770;DHT22;368;48.698;9.116;2023-03-23T15:19:48;17.20;79.20
770;DHT22;368;48.698;9.116;2023-03-23T15:22:20;17.00;78.70
770;DHT22;368;48.698;9.116;2023-03-23T15:24:47;17.00;79.30
770;DHT22;368;48.698;9.116;2023-03-23T15:27:17;17.00;78.60
770;DHT22;368;48.698;9.116;2023-03-23T15:29:49;16.90;78.90
770;DHT22;368;48.698;9.116;2023-03-23T15:32:22;16.80;79.20
770;DHT22;368;48.698;9.116;2023-03-23T15:34:50;16.80;79.60
770;DHT22;368;48.698;9.116;2023-03-23T15:37:23;16.70;80.00
770;DHT22;368;48.698;9.116;2023-03-23T15:39:51;16.70;80.50
770;DHT22;368;48.698;9.116;2023-03-23T15:42:22;16.40;80.80
770;DHT22;368;48.698;9.116;2023-03-23T15:44:56;16.40;80.70
770;DHT22;368;48.698;9.116;2023-03-23T15:47:34;16.60;81.10
770;DHT22;368;48.698;9.116;2023-03-23T15:50:09;16.60;81.00
770;DHT22;368;48.698;9.116;2023-03-23T15:52:37;16.60;81.00
770;DHT22;368;48.698;9.116;2023-03-23T15:55:19;16.50;81.30
770;DHT22;368;48.698;9.116;2023-03-23T15:57:47;16.40;81.20
770;DHT22;368;48.698;9.116;2023-03-23T16:00:16;16.40;81.50
770;DHT22;368;48.698;9.116;2023-03-23T16:02:45;16.30;81.20
770;DHT22;368;48.698;9.116;2023-03-23T16:05:12;16.40;81.90
770;DHT22;368;48.698;9.116;2023-03-23T16:07:41;16.20;81.30
770;DHT22;368;48.698;9.116;2023-03-23T16:10:15;16.30;81.50
770;DHT22;368;48.698;9.116;2023-03-23T16:12:43;16.10;81.80
770;DHT22;368;48.698;9.116;2023-03-23T16:15:10;16.10;82.10
770;DHT22;368;48.698;9.116;2023-03-23T16:17:37;16.00;82.30
770;DHT22;368;48.698;9.116;2023-03-23T16:20:13;15.80;82.60
770;DHT22;368;48.698;9.116;2023-03-23T16:22:42;16.10;82.50
770;DHT22;368;48.698;9.116;2023-03-23T16:25:09;15.90;82.30
770;DHT22;368;48.698;9.116;2023-03-23T16:27:36;15.90;82.60
770;DHT22;368;48.698;9.116;2023-03-23T16:30:13;16.00;83.00
770;DHT22;368;48.698;9.116;2023-03-23T16:32:40;15.70;83.10
770;DHT22;368;48.698;9.116;2023-03-23T16:35:08;15.80;83.20
770;DHT22;368;48.698;9.116;2023-03-23T16:37:36;15.80;83.60
770;DHT22;368;48.698;9.116;2023-03-23T16:40:05;15.60;83.70
770;DHT22;368;48.698;9.116;2023-03-23T16:42:32;15.70;84.10
770;DHT22;368;48.698;9.116;2023-03-23T16:44:59;15.80;84.50
770;DHT22;368;48.698;9.116;2023-03-23T16:47:26;15.60;84.60
770;DHT22;368;48.698;9.116;2023-03-23T16:49:53;15.80;85.20
770;DHT22;368;48.698;9.116;2023-03-23T16:52:20;15.50;84.90
770;DHT22;368;48.698;9.116;2023-03-23T16:54:46;15.80;85.20
770;DHT22;368;48.698;9.116;2023-03-23T16:57:15;15.70;85.20
770;DHT22;368;48.698;9.116;2023-03-23T16:59:42;15.60;85.40
770;DHT22;368;48.698;9.116;2023-03-23T17:02:09;15.60;86.10
770;DHT22;368;48.698;9.116;2023-03-23T17:04:37;15.60;86.20
770;DHT22;368;48.698;9.116;2023-03-23T17:07:07;15.50;86.10
770;DHT22;368;48.698;9.116;2023-03-23T17:09:34;15.40;86.20